Time;durP1;ratioP1;P1;durP2;ratioP2;P2;SDS_P1;SDS_P2;PMS_P1;PMS_P2;Temp;Humidity;BMP_temperature;BMP_pressure;BME280_temperature;BME280_humidity;BME280_pressure;Samples;Min_cycle;Max_cycle;Signal;HPM_P1;HPM_P2
2022/08/04 00:01:11;;;;;;;2.10;2.00;;;24.90;99.90;;;25.44;68.41;101205.53;5093631;28;20083;-65
2022/08/04 00:03:49;;;;;;;1.95;1.90;;;25.10;99.90;;;25.34;70.17;101201.59;5093615;28;20071;-65
2022/08/04 00:06:26;;;;;;;2.10;2.00;;;25.00;99.90;;;25.29;72.30;101198.31;5093581;28;20397;-65
2022/08/04 00:09:03;;;;;;;7.35;6.22;;;25.00;99.90;;;25.20;74.35;101198.00;5075252;28;20469;-65
2022/08/04 00:11:33;;;;;;;1.92;1.90;;;24.80;99.90;;;25.05;74.82;101192.50;5093417;28;20067;-65
2022/08/04 00:14:04;;;;;;;1.60;1.60;;;24.70;99.90;;;25.07;74.89;101195.13;5093416;28;20040;-65
2022/08/04 00:16:36;;;;;;;1.65;1.65;;;24.70;99.90;;;25.00;75.22;101196.44;5093442;28;20123;-65
2022/08/04 00:19:12;;;;;;;1.70;1.70;;;24.60;99.90;;;25.06;73.97;101193.38;5093413;28;20058;-65
2022/08/04 00:21:51;;;;;;;1.80;1.80;;;24.60;99.90;;;25.16;72.54;101181.06;5075070;28;20493;-65
2022/08/04 00:24:22;;;;;;;1.60;1.60;;;24.70;99.90;;;25.23;71.37;101195.09;5075247;28;20044;-65
2022/08/04 00:26:53;;;;;;;1.88;1.88;;;24.80;99.90;;;25.22;70.85;101191.53;5093689;28;20040;-65
2022/08/04 00:29:23;;;;;;;2.20;2.10;;;24.80;99.90;;;25.19;70.86;101191.69;5075066;28;20080;-65
2022/08/04 00:31:52;;;;;;;1.67;1.67;;;24.80;99.90;;;25.17;71.68;101182.78;5093190;28;20050;-65
2022/08/04 00:34:27;;;;;;;1.98;1.90;;;24.80;99.90;;;25.10;72.68;101188.66;5093059;28;20408;-65
2022/08/04 00:36:57;;;;;;;1.70;1.70;;;24.70;99.90;;;25.01;72.76;101190.06;5093087;28;20591;-65
2022/08/04 00:39:27;;;;;;;1.73;1.73;;;24.60;99.90;;;24.99;72.58;101189.28;5093141;28;20039;-65
2022/08/04 00:42:14;;;;;;;;;;;24.50;99.90;;;24.91;72.23;101183.47;5093553;28;20055;-65
2022/08/04 00:45:17;;;;;;;2.08;1.98;;;24.50;99.90;;;24.98;71.84;101187.53;5074487;28;20364;-65
2022/08/04 00:48:04;;;;;;;1.90;1.88;;;24.50;99.90;;;24.96;72.31;101181.34;5093351;28;20170;-65
2022/08/04 00:50:45;;;;;;;1.80;1.80;;;24.50;99.90;;;24.80;72.17;101188.63;5092993;28;20044;-65
2022/08/04 00:53:17;;;;;;;;;;;24.40;99.90;;;24.59;73.22;101162.75;5093536;28;20065;-65
2022/08/04 00:56:05;;;;;;;2.30;2.20;;;24.30;99.90;;;24.70;74.26;101181.97;5092876;28;19985;-65
2022/08/04 00:58:50;;;;;;;2.25;2.15;;;24.30;99.90;;;24.69;74.42;101180.22;5092869;28;20126;-65
2022/08/04 01:01:58;;;;;;;2.13;2.03;;;24.30;99.90;;;24.63;74.25;101183.28;5092706;28;20068;-65
2022/08/04 01:04:43;;;;;;;1.77;1.77;;;24.30;99.90;;;24.45;74.34;101177.06;5092817;28;20493;-65
2022/08/04 01:07:43;;;;;;;2.25;2.15;;;24.20;99.90;;;24.44;75.92;101179.88;5093036;28;20072;-65
2022/08/04 01:10:24;;;;;;;1.77;1.77;;;24.00;99.90;;;24.24;76.16;101139.56;5092794;28;20048;-65
2022/08/04 01:13:26;;;;;;;2.08;1.98;;;24.10;99.90;;;24.32;76.66;101169.75;5092780;28;20123;-65
2022/08/04 01:16:02;;;;;;;2.90;2.80;;;24.00;99.90;;;24.33;76.28;101171.50;5092402;28;20130;-65
2022/08/04 01:18:39;;;;;;;1.80;1.80;;;24.00;99.90;;;24.28;75.95;101170.88;5092571;28;20078;-65
2022/08/04 01:21:55;;;;;;;1.90;1.88;;;23.90;99.90;;;24.20;75.97;101165.03;5092606;28;20105;-65
2022/08/04 01:24:43;;;;;;;1.88;1.85;;;23.90;99.90;;;24.29;77.06;101159.09;5092742;28;20549;-65
2022/08/04 01:27:27;;;;;;;2.22;2.13;;;23.90;99.90;;;24.33;77.48;101160.69;5093231;28;20484;-65
2022/08/04 01:30:01;;;;;;;1.58;1.58;;;23.90;99.90;;;24.25;76.78;101162.94;5093121;28;20056;-65
2022/08/04 01:32:36;;;;;;;2.70;2.53;;;23.90;99.90;;;24.16;76.49;101165.19;5093205;28;20127;-65
2022/08/04 01:35:11;;;;;;;1.85;1.77;;;23.80;99.90;;;24.13;76.45;101161.81;5092936;28;20040;-65
2022/08/04 01:38:01;;;;;;;3.15;2.95;;;23.70;99.90;;;24.11;77.44;101156.47;5092691;28;20063;-65
2022/08/04 01:40:49;;;;;;;2.00;1.90;;;23.80;99.90;;;24.08;77.68;101162.03;5092696;28;20056;-65
2022/08/04 01:43:18;;;;;;;2.13;2.03;;;23.80;99.90;;;24.05;77.28;101158.66;5074845;28;20472;-66
2022/08/04 01:45:51;;;;;;;1.98;1.90;;;23.70;99.90;;;23.80;77.49;101129.38;5093263;28;20040;-65
2022/08/04 01:48:24;;;;;;;1.80;1.80;;;23.60;99.90;;;24.02;77.58;101146.16;5092927;28;20040;-66
2022/08/04 01:50:56;;;;;;;2.10;2.00;;;23.60;99.90;;;24.08;76.73;101151.22;5093281;28;20047;-65
2022/08/04 01:53:31;;;;;;;2.00;1.90;;;23.70;99.90;;;24.17;76.41;101148.03;5092688;28;20079;-65
2022/08/04 01:56:02;;;;;;;2.03;1.92;;;23.80;99.90;;;24.21;76.25;101150.56;5077536;28;20079;-66
2022/08/04 01:58:34;;;;;;;2.05;1.95;;;23.80;99.90;;;24.10;76.00;101133.09;5096219;28;20040;-65
2022/08/04 02:01:06;;;;;;;2.03;1.92;;;23.80;99.90;;;24.10;75.83;101143.91;5096213;28;20550;-65
2022/08/04 02:03:39;;;;;;;1.70;1.70;;;23.80;99.90;;;24.09;76.98;101149.41;5096303;28;20458;-65
2022/08/04 02:06:32;;;;;;;2.05;1.95;;;23.70;99.90;;;24.04;77.55;101148.81;5096301;28;20489;-65
2022/08/04 02:09:12;;;;;;;1.98;1.88;;;23.70;99.90;;;24.04;77.83;101138.00;5096081;28;20546;-66
2022/08/04 02:11:51;;;;;;;1.87;1.80;;;23.60;99.90;;;23.99;78.46;101149.00;5096190;28;20554;-66
2022/08/04 02:14:41;;;;;;;2.20;2.10;;;23.60;99.90;;;23.88;78.40;101127.13;5096027;28;20390;-66
2022/08/04 02:17:14;;;;;;;1.73;1.73;;;23.60;99.90;;;23.80;78.72;101117.69;5078081;28;20048;-65
2022/08/04 02:20:04;;;;;;;1.77;1.77;;;23.60;99.90;;;23.73;78.60;101133.34;5096190;28;20079;-65
2022/08/04 02:22:37;;;;;;;3.22;3.13;;;23.40;99.90;;;23.65;78.89;101138.31;5095934;28;20036;-65
2022/08/04 02:25:09;;;;;;;2.17;2.08;;;23.30;99.90;;;23.42;78.51;101084.66;5095927;28;20066;-65
2022/08/04 02:27:56;;;;;;;2.13;2.03;;;23.30;99.90;;;23.55;78.91;101111.88;5096269;28;20093;-65
2022/08/04 02:30:34;;;;;;;2.10;2.00;;;23.30;99.90;;;23.66;79.47;101129.25;5095995;28;20123;-66
2022/08/04 02:33:07;;;;;;;1.95;1.85;;;23.20;99.90;;;22.93;80.10;101001.81;5095626;28;20043;-65
2022/08/04 02:35:39;;;;;;;2.20;2.10;;;23.20;99.90;;;23.72;80.82;101128.03;5095632;28;20477;-65
2022/08/04 02:38:31;;;;;;;1.95;1.85;;;23.20;99.90;;;23.66;81.54;101128.34;5095612;28;20047;-65
2022/08/04 02:41:01;;;;;;;2.08;1.98;;;23.20;99.90;;;23.60;81.94;101128.69;5095998;28;20048;-65
2022/08/04 02:43:32;;;;;;;1.67;1.67;;;23.20;99.90;;;23.55;81.94;101134.34;5095601;28;20044;-66
2022/08/04 02:46:22;;;;;;;1.87;1.80;;;23.10;99.90;;;23.48;80.87;101123.97;5095796;28;20044;-65
2022/08/04 02:48:53;;;;;;;;;;;23.10;99.90;;;23.39;80.85;101102.81;5095625;28;20282;-65
2022/08/04 02:51:25;;;;;;;1.98;1.88;;;23.20;99.90;;;23.52;80.63;101136.34;5095361;28;20338;-65
2022/08/04 02:53:56;;;;;;;2.00;1.90;;;23.10;99.90;;;23.58;80.73;101123.38;5095919;28;20094;-65
2022/08/04 02:56:29;;;;;;;3.20;3.10;;;23.10;99.90;;;23.51;80.42;101121.97;5095222;28;20097;-65
2022/08/04 02:59:01;;;;;;;1.70;1.70;;;23.10;99.90;;;23.37;80.46;101100.22;5095193;28;20067;-65
2022/08/04 03:01:30;;;;;;;2.15;2.05;;;23.10;99.90;;;23.47;81.12;101120.38;5095158;28;20481;-65
2022/08/04 03:04:25;;;;;;;2.55;2.45;;;23.10;99.90;;;23.54;81.64;101120.94;5095045;28;20527;-65
2022/08/04 03:07:52;;;;;;;2.40;2.30;;;23.10;99.90;;;23.57;81.94;101127.03;5094420;28;20123;-66
2022/08/04 03:11:23;;;;;;;2.30;2.20;;;23.20;99.90;;;23.59;82.36;101125.13;5047622;28;20056;-65
2022/08/04 03:14:43;;;;;;;2.35;2.25;;;23.20;99.90;;;23.56;82.38;101119.00;5042805;28;20059;-65
2022/08/04 03:18:03;;;;;;;2.17;2.08;;;23.20;99.90;;;23.47;82.02;101109.59;5094814;28;20043;-65
2022/08/04 03:21:24;;;;;;;2.25;2.15;;;23.20;99.90;;;23.22;81.80;101111.81;5095094;28;20048;-66
2022/08/04 03:24:31;;;;;;;2.20;2.10;;;22.90;99.90;;;23.13;82.39;101104.19;5052702;28;20457;-65
2022/08/04 03:27:12;;;;;;;1.85;1.80;;;22.80;99.90;;;23.23;82.39;101110.84;5065724;28;20110;-65
2022/08/04 03:30:05;;;;;;;2.10;2.00;;;22.80;99.90;;;23.28;82.10;101116.88;5094802;28;20481;-65
2022/08/04 03:33:13;;;;;;;2.25;2.15;;;22.90;99.90;;;23.22;81.76;101109.09;5094807;28;20197;-65
2022/08/04 03:36:48;;;;;;;2.10;2.00;;;22.90;99.90;;;23.23;82.04;101111.72;5094483;28;20460;-66
2022/08/04 03:40:07;;;;;;;2.00;1.90;;;22.80;99.90;;;23.38;81.91;101101.97;5032526;28;20071;-66
2022/08/04 03:43:17;;;;;;;;;;;23.00;99.90;;;23.28;82.04;101098.88;5076301;28;20480;-65
2022/08/04 03:46:51;;;;;;;2.85;2.70;;;23.00;99.90;;;23.27;82.18;101101.63;5031917;28;19954;-65
2022/08/04 03:50:07;;;;;;;2.05;1.95;;;23.00;99.90;;;23.26;82.17;101105.28;5094361;28;20063;-65
2022/08/04 03:53:09;;;;;;;2.28;2.17;;;22.90;99.90;;;23.22;82.42;101101.88;5094084;28;20101;-66
2022/08/04 03:56:30;;;;;;;2.33;2.22;;;22.90;99.90;;;23.17;82.48;101097.69;5094305;28;20074;-65
2022/08/04 03:59:31;;;;;;;1.98;1.88;;;22.80;99.90;;;23.14;82.59;101082.53;5063275;28;20398;-66
2022/08/04 04:02:36;;;;;;;2.10;2.00;;;22.80;99.90;;;23.15;82.54;101088.78;5093874;28;20449;-65
2022/08/04 04:05:57;;;;;;;2.20;2.10;;;22.80;99.90;;;23.27;82.71;101094.41;5088752;28;20125;-65
2022/08/04 04:09:17;;;;;;;2.10;2.00;;;22.80;99.90;;;23.26;82.29;101091.78;5093830;28;20090;-65
2022/08/04 04:12:30;;;;;;;2.20;2.10;;;22.80;99.90;;;23.27;82.11;101085.41;5025408;28;20048;-64
2022/08/04 04:15:20;;;;;;;2.40;2.30;;;22.90;99.90;;;23.16;82.07;101075.22;5091603;28;20080;-62
2022/08/04 04:18:18;;;;;;;2.10;2.00;;;22.90;99.90;;;22.94;81.94;101062.91;5093090;28;20040;-62
2022/08/04 04:21:25;;;;;;;1.88;1.80;;;22.80;99.90;;;22.99;80.87;101113.00;5072327;28;20052;-61
2022/08/04 04:24:28;;;;;;;2.13;2.03;;;22.70;99.90;;;23.00;81.62;101114.75;5093559;28;20077;-63
2022/08/04 04:27:18;;;;;;;2.25;2.15;;;22.60;99.90;;;23.04;81.97;101116.34;5093576;28;20047;-63
2022/08/04 04:30:06;;;;;;;2.20;2.10;;;22.60;99.90;;;23.00;82.20;101108.47;5093652;28;20435;-63
2022/08/04 04:33:06;;;;;;;1.98;1.88;;;22.60;99.90;;;22.93;82.16;101089.03;5093742;28;20114;-63
2022/08/04 04:35:49;;;;;;;2.10;2.00;;;22.60;99.90;;;23.04;82.23;101113.63;5093910;28;20101;-63
2022/08/04 04:38:45;;;;;;;2.03;1.92;;;22.70;99.90;;;23.10;82.75;101105.22;5093146;28;20044;-63
2022/08/04 04:41:34;;;;;;;2.20;2.10;;;22.70;99.90;;;23.11;82.68;101111.50;5093507;28;20095;-65
2022/08/04 04:44:30;;;;;;;2.20;2.10;;;22.70;99.90;;;23.03;82.38;101111.03;5093364;28;20079;-65
2022/08/04 04:47:12;;;;;;;2.35;2.25;;;22.70;99.90;;;22.57;81.87;101018.06;5093267;28;20127;-65
2022/08/04 04:49:49;;;;;;;2.55;2.45;;;22.80;99.90;;;23.27;81.97;101107.03;5093117;28;20127;-63
2022/08/04 04:52:28;;;;;;;2.28;2.17;;;22.80;99.90;;;23.25;81.94;101104.41;5093761;28;20119;-64
2022/08/04 04:55:05;;;;;;;2.38;2.28;;;22.80;99.90;;;23.33;82.22;101095.94;5093688;28;20040;-64
2022/08/04 04:57:37;;;;;;;2.03;1.92;;;22.90;99.90;;;23.39;82.52;101105.53;5093124;28;20070;-64
2022/08/04 05:00:26;;;;;;;2.30;2.20;;;22.90;99.90;;;23.39;83.20;101119.91;5075313;28;20066;-64
2022/08/04 05:03:33;;;;;;;2.10;2.00;;;22.90;99.90;;;23.44;84.16;101120.53;5093071;28;20066;-64
2022/08/04 05:06:28;;;;;;;2.25;2.15;;;23.00;99.90;;;23.46;84.17;101118.63;5093292;28;20085;-64
2022/08/04 05:09:12;;;;;;;1.83;1.77;;;23.00;99.90;;;23.52;84.91;101121.00;5093102;28;20048;-64
2022/08/04 05:12:24;;;;;;;2.10;2.00;;;23.00;99.90;;;23.61;83.93;101128.63;5093124;28;20126;-64
2022/08/04 05:15:14;;;;;;;2.15;2.05;;;23.20;99.90;;;23.61;83.22;101131.31;5093078;28;20483;-64
2022/08/04 05:17:49;;;;;;;2.03;1.92;;;23.20;99.90;;;23.62;83.50;101135.75;5093056;28;20483;-64
2022/08/04 05:20:27;;;;;;;2.50;2.40;;;23.20;99.90;;;23.58;84.39;101128.78;5092917;28;20044;-64
2022/08/04 05:23:00;;;;;;;2.00;1.90;;;23.10;99.90;;;23.15;84.78;101067.19;5092969;28;20058;-65
2022/08/04 05:25:34;;;;;;;1.95;1.85;;;23.10;99.90;;;23.60;84.89;101144.88;5093164;28;20145;-64
2022/08/04 05:28:10;;;;;;;2.85;2.70;;;23.10;99.90;;;23.49;85.46;101133.78;5092937;28;20128;-64
2022/08/04 05:30:47;;;;;;;2.15;2.05;;;23.10;99.90;;;23.51;85.63;101137.28;5095819;28;20063;-64
2022/08/04 05:33:21;;;;;;;2.45;2.35;;;23.10;99.90;;;23.44;86.18;101144.84;5096942;28;20101;-64
2022/08/04 05:36:00;;;;;;;2.20;2.10;;;22.90;99.90;;;23.40;87.00;101137.00;5096854;28;20044;-64
2022/08/04 05:38:53;;;;;;;2.40;2.30;;;22.90;99.90;;;23.42;87.36;101146.78;5096796;28;20501;-64
2022/08/04 05:41:22;;;;;;;8.15;3.67;;;23.00;99.90;;;23.61;86.36;101144.84;5096863;28;20090;-65
2022/08/04 05:44:11;;;;;;;2.70;2.60;;;23.10;99.90;;;23.59;86.02;101148.56;5097032;28;20105;-64
2022/08/04 05:46:41;;;;;;;2.33;2.22;;;23.20;99.90;;;23.59;86.23;101143.16;5096634;28;20451;-64
2022/08/04 05:49:10;;;;;;;2.30;2.20;;;23.10;99.90;;;23.69;86.19;101139.00;5096373;28;20128;-65
2022/08/04 05:51:49;;;;;;;2.17;2.08;;;23.20;99.90;;;23.71;85.80;101137.94;5096627;28;20089;-63
2022/08/04 05:54:20;;;;;;;2.30;2.20;;;23.20;99.90;;;23.71;85.25;101145.22;5096324;28;20040;-63
2022/08/04 05:56:49;;;;;;;2.05;1.95;;;23.30;99.90;;;23.79;85.05;101153.78;5096281;28;20088;-64
2022/08/04 05:59:19;;;;;;;2.30;2.20;;;23.40;99.90;;;23.80;85.47;101152.81;5096483;28;20040;-64
2022/08/04 06:01:49;;;;;;;16.15;4.90;;;23.40;99.90;;;23.91;85.04;101155.78;5096533;28;20130;-64
2022/08/04 06:04:30;;;;;;;2.15;2.05;;;23.50;99.90;;;23.90;85.55;101146.81;5096170;28;20378;-64
2022/08/04 06:07:00;;;;;;;2.22;2.13;;;23.50;99.90;;;23.98;84.25;101138.28;5096679;28;20089;-64
2022/08/04 06:09:30;;;;;;;2.10;2.00;;;23.50;99.90;;;24.05;84.34;101145.13;5096166;28;20044;-64
2022/08/04 06:12:03;;;;;;;2.47;2.37;;;23.60;99.90;;;24.03;84.78;101152.44;5096097;28;20076;-64
2022/08/04 06:14:38;;;;;;;2.00;1.90;;;23.60;99.90;;;24.10;84.19;101154.72;5096295;28;20119;-64
2022/08/04 06:17:10;;;;;;;2.00;1.90;;;23.60;99.90;;;24.20;83.46;101154.22;5096351;28;20039;-64
2022/08/04 06:19:59;;;;;;;2.40;2.30;;;23.80;99.90;;;24.29;83.36;101154.59;5095874;28;20050;-64
2022/08/04 06:22:53;;;;;;;2.08;1.98;;;23.90;99.90;;;24.48;82.82;101149.00;5077725;28;20045;-64
2022/08/04 06:25:25;;;;;;;2.25;2.15;;;24.10;99.90;;;24.45;83.00;101154.59;5096097;28;20048;-64
2022/08/04 06:27:56;;;;;;;2.33;2.22;;;24.10;99.90;;;24.35;81.43;101147.94;5095771;28;20101;-64
2022/08/04 06:30:26;;;;;;;2.45;2.35;;;24.10;99.90;;;24.45;80.70;101149.19;5095551;28;20089;-64
2022/08/04 06:32:56;;;;;;;2.28;2.17;;;24.10;99.90;;;24.32;80.89;101148.09;5095838;28;20039;-64
2022/08/04 06:35:33;;;;;;;2.40;2.30;;;23.90;99.90;;;24.32;81.32;101149.00;5095594;28;20040;-64
2022/08/04 06:38:03;;;;;;;3.40;3.20;;;23.90;99.90;;;24.57;79.97;101153.84;5095431;28;20072;-67
2022/08/04 06:40:33;;;;;;;2.50;2.40;;;24.10;99.90;;;24.42;79.87;101154.75;5095269;28;20060;-68
2022/08/04 06:43:05;;;;;;;4.05;3.75;;;24.10;99.90;;;24.74;79.26;101159.19;5095039;28;20044;-67
2022/08/04 06:45:38;;;;;;;2.08;1.98;;;24.30;99.90;;;24.74;77.40;101168.19;5095521;28;20036;-68
2022/08/04 06:48:08;;;;;;;2.40;2.30;;;24.40;99.90;;;24.80;76.19;101161.53;5095513;28;20202;-65
2022/08/04 06:50:37;;;;;;;2.50;2.40;;;24.40;99.90;;;24.99;73.97;101178.44;5095559;28;20071;-65
2022/08/04 06:53:28;;;;;;;1.92;1.83;;;24.60;99.90;;;24.75;73.91;101172.66;5095611;28;20288;-66
2022/08/04 06:55:57;;;;;;;;;;;24.50;99.90;;;25.00;73.32;101180.22;5096223;28;20101;-66
2022/08/04 06:58:27;;;;;;;2.28;2.17;;;24.60;99.90;;;24.87;72.02;101144.00;5095475;28;19926;-66
2022/08/04 07:01:00;;;;;;;2.50;2.40;;;24.70;99.90;;;24.94;72.00;101176.03;5095166;28;20119;-66
2022/08/04 07:03:31;;;;;;;2.40;2.30;;;24.60;99.90;;;24.58;72.16;101171.84;5095063;28;20036;-66
2022/08/04 07:06:00;;;;;;;2.95;2.75;;;24.30;99.90;;;24.80;72.25;101177.78;5095321;28;20074;-66
2022/08/04 07:08:36;;;;;;;2.55;2.40;;;24.40;99.90;;;25.09;71.97;101192.34;5094992;28;20043;-67
2022/08/04 07:11:04;;;;;;;;;;;24.60;99.90;;;25.10;71.00;101194.97;5095300;28;20036;-66
2022/08/04 07:13:33;;;;;;;2.38;2.28;;;24.70;99.90;;;24.57;71.33;101091.63;5094798;28;20010;-66
2022/08/04 07:16:02;;;;;;;2.70;2.60;;;24.70;99.90;;;25.19;71.45;101194.41;5094675;28;20047;-66
2022/08/04 07:18:31;;;;;;;3.95;3.75;;;24.80;99.90;;;25.25;70.63;101201.28;5095021;28;20189;-66
2022/08/04 07:21:00;;;;;;;2.07;1.97;;;24.80;99.90;;;25.41;69.94;101204.84;5094718;28;20075;-66
2022/08/04 07:23:28;;;;;;;2.63;2.53;;;25.00;99.90;;;25.39;69.52;101207.66;5076784;28;20040;-67
2022/08/04 07:25:58;;;;;;;2.35;2.25;;;25.00;99.90;;;25.18;69.52;101211.63;5094883;28;20119;-66
2022/08/04 07:28:41;;;;;;;2.00;1.90;;;24.90;99.90;;;25.41;70.13;101213.88;5094615;28;20113;-66
2022/08/04 07:31:12;;;;;;;2.03;1.92;;;25.00;99.90;;;24.98;69.24;101168.59;5094426;28;20516;-66
2022/08/04 07:34:03;;;;;;;2.45;2.35;;;25.00;99.90;;;25.27;69.07;101207.47;5094737;28;20074;-66
2022/08/04 07:36:51;;;;;;;2.13;2.03;;;25.00;99.90;;;25.16;69.26;101218.97;5094695;28;20405;-66
2022/08/04 07:39:25;;;;;;;2.10;2.00;;;24.80;99.90;;;25.21;70.02;101222.25;5094298;28;20043;-66
2022/08/04 07:42:01;;;;;;;2.20;2.10;;;24.80;99.90;;;25.19;70.00;101224.19;5075820;28;20058;-66
2022/08/04 07:44:31;;;;;;;2.00;1.90;;;24.80;99.90;;;25.42;68.48;101234.56;5094534;28;20130;-67
2022/08/04 07:47:01;;;;;;;2.00;1.90;;;25.00;99.90;;;25.63;68.68;101235.97;5076202;28;20494;-67
2022/08/04 07:49:30;;;;;;;2.00;1.90;;;25.20;99.90;;;25.76;68.04;101236.97;5094006;28;20101;-66
2022/08/04 07:52:19;;;;;;;2.20;2.10;;;25.40;99.90;;;25.67;66.24;101242.06;5075918;28;20143;-66
2022/08/04 07:54:48;;;;;;;2.10;2.00;;;25.40;99.90;;;25.73;65.44;101239.88;5094408;28;20119;-66
2022/08/04 07:57:19;;;;;;;1.70;1.70;;;25.40;99.90;;;25.79;65.05;101230.50;5094530;28;20086;-65
2022/08/04 08:00:10;;;;;;;1.70;1.70;;;25.50;99.90;;;25.97;65.45;101236.59;5093101;28;20068;-66
2022/08/04 08:02:42;;;;;;;2.08;1.98;;;25.60;99.90;;;26.21;64.90;101241.41;5093935;28;20123;-66
2022/08/04 08:05:15;;;;;;;2.10;2.00;;;25.80;99.90;;;26.06;63.85;101247.78;5094107;28;20079;-66
2022/08/04 08:07:47;;;;;;;1.70;1.70;;;25.70;99.90;;;26.15;62.79;101219.22;5094406;28;20365;-66
2022/08/04 08:10:21;;;;;;;2.20;2.10;;;25.90;99.90;;;26.41;61.90;101240.13;5093995;28;20127;-66
2022/08/04 08:12:52;;;;;;;2.08;1.98;;;26.10;99.90;;;26.26;62.07;101232.97;5093805;28;20044;-66
2022/08/04 08:15:21;;;;;;;1.98;1.88;;;26.00;99.90;;;26.22;61.05;101245.00;5093871;28;20066;-66
2022/08/04 08:17:50;;;;;;;2.17;2.08;;;25.90;99.90;;;26.30;60.39;101253.53;5093958;28;20043;-66
2022/08/04 08:20:29;;;;;;;2.17;2.08;;;25.90;99.90;;;26.22;60.86;101250.41;5093609;28;20048;-66
2022/08/04 08:22:59;;;;;;;2.05;1.98;;;25.90;99.90;;;26.27;60.45;101242.84;5093608;28;20493;-66
2022/08/04 08:25:29;;;;;;;2.22;2.13;;;25.90;99.90;;;26.38;60.98;101243.94;5093379;28;20123;-66
2022/08/04 08:28:00;;;;;;;1.95;1.85;;;26.00;99.90;;;26.51;60.25;101238.56;5093411;28;20060;-66
2022/08/04 08:30:28;;;;;;;2.40;2.25;;;26.20;99.90;;;26.54;59.33;101235.66;5093436;28;20090;-66
2022/08/04 08:33:02;;;;;;;2.47;2.38;;;26.20;99.90;;;26.01;59.21;101232.75;5093311;28;20043;-66
2022/08/04 08:35:42;;;;;;;6.35;2.45;;;26.00;99.90;;;26.17;60.02;101236.28;5093355;28;20063;-66
2022/08/04 08:38:38;;;;;;;3.17;3.03;;;25.90;99.90;;;26.35;59.32;101235.09;5093874;28;20142;-66
2022/08/04 08:41:35;;;;;;;2.10;2.00;;;26.00;99.90;;;26.63;57.27;101245.94;5093296;28;20594;-66
2022/08/04 08:45:09;;;;;;;2.00;1.90;;;26.20;99.90;;;26.94;56.94;101247.53;5093177;28;20463;-67
2022/08/04 08:48:04;;;;;;;1.88;1.85;;;26.60;99.90;;;27.26;56.44;101246.25;5072936;28;20147;-66
2022/08/04 08:51:03;;;;;;;1.67;1.67;;;27.00;99.90;;;27.53;55.16;101253.44;5093326;28;20051;-66
2022/08/04 08:53:52;;;;;;;1.73;1.73;;;27.20;99.90;;;27.51;54.27;101260.81;5093401;28;20077;-66
2022/08/04 08:56:34;;;;;;;1.63;1.63;;;27.30;99.90;;;27.41;53.09;101243.41;5093436;28;20457;-66
2022/08/04 08:59:26;;;;;;;1.42;1.42;;;27.30;99.90;;;27.02;53.52;101243.34;5093160;28;20127;-66
2022/08/04 09:02:19;;;;;;;1.63;1.63;;;26.90;99.90;;;26.93;55.58;101243.06;5093032;28;20033;-66
2022/08/04 09:05:14;;;;;;;1.80;1.80;;;26.60;99.90;;;27.19;54.37;101245.81;5092835;28;20493;-66
2022/08/04 09:08:05;;;;;;;1.50;1.50;;;26.80;99.90;;;27.52;53.06;101257.16;5093239;28;20421;-66
2022/08/04 09:10:42;;;;;;;2.08;1.98;;;27.20;99.90;;;27.41;53.57;101261.56;5092988;28;20581;-66
2022/08/04 09:13:20;;;;;;;2.72;2.55;;;27.20;99.90;;;27.16;53.62;101266.88;5093085;28;20474;-67
2022/08/04 09:15:57;;;;;;;1.75;1.75;;;26.90;99.90;;;27.01;54.01;101259.72;5092772;28;20499;-67
2022/08/04 09:18:33;;;;;;;1.98;1.90;;;26.70;99.90;;;26.84;53.92;101270.84;5092840;28;20111;-67
2022/08/04 09:21:10;;;;;;;2.15;2.05;;;26.50;99.90;;;26.54;55.06;101270.94;5093151;28;20109;-66
2022/08/04 09:23:55;;;;;;;1.88;1.80;;;26.20;99.90;;;26.60;55.49;101265.13;5075086;28;20052;-66
2022/08/04 09:26:34;;;;;;;1.60;1.60;;;26.20;99.90;;;26.63;54.25;101273.97;5092775;28;20047;-67
2022/08/04 09:29:12;;;;;;;2.13;2.03;;;26.20;99.90;;;26.74;54.63;101281.44;5092687;28;20052;-66
2022/08/04 09:31:52;;;;;;;1.58;1.58;;;26.30;99.90;;;26.76;54.20;101291.22;5092809;28;20048;-66
2022/08/04 09:34:45;;;;;;;2.13;2.03;;;26.40;99.90;;;26.84;54.03;101282.59;5092544;28;20405;-66
2022/08/04 09:37:38;;;;;;;1.85;1.85;;;26.40;99.90;;;26.90;53.40;101292.16;5092963;28;20040;-66
2022/08/04 09:40:23;;;;;;;1.77;1.77;;;26.50;99.90;;;26.67;53.98;101288.19;5074640;28;20060;-66
2022/08/04 09:43:15;;;;;;;1.80;1.75;;;26.40;99.90;;;26.68;53.65;101289.94;5092925;28;20423;-68
2022/08/04 09:45:59;;;;;;;1.70;1.70;;;26.30;99.90;;;26.66;54.05;101284.59;5092716;28;20047;-66
2022/08/04 09:48:39;;;;;;;2.00;1.90;;;26.30;99.90;;;26.68;54.82;101296.25;5093004;28;20605;-66
2022/08/04 09:51:24;;;;;;;2.00;1.90;;;26.30;99.90;;;26.69;53.94;101302.56;5092632;28;20044;-68
2022/08/04 09:54:20;;;;;;;2.10;2.00;;;26.30;99.90;;;26.67;54.57;101305.34;5092813;28;20040;-63
2022/08/04 09:57:09;;;;;;;1.55;1.55;;;26.30;99.90;;;26.82;53.78;101306.25;5092820;28;20040;-62
2022/08/04 09:59:48;;;;;;;2.10;2.00;;;26.40;99.90;;;26.92;53.24;101311.94;5092366;28;20048;-62
2022/08/04 10:02:21;;;;;;;1.60;1.60;;;26.50;99.90;;;27.03;52.88;101314.81;5092506;28;20106;-62
2022/08/04 10:04:56;;;;;;;1.85;1.85;;;26.70;99.90;;;26.82;53.37;101305.38;5092670;28;20129;-66
2022/08/04 10:07:43;;;;;;;1.88;1.85;;;26.50;99.90;;;26.88;53.34;101307.69;5092426;28;20040;-66
2022/08/04 10:10:38;;;;;;;2.08;1.98;;;26.50;99.90;;;26.86;52.18;101310.50;5092681;28;20089;-66
2022/08/04 10:13:23;;;;;;;1.75;1.75;;;26.50;99.90;;;26.77;52.72;101311.13;5092258;28;20036;-66
2022/08/04 10:16:11;;;;;;;2.47;2.28;;;26.40;99.90;;;26.84;51.74;101303.41;5092298;28;20115;-66
2022/08/04 10:18:50;;;;;;;3.42;3.05;;;26.60;99.90;;;26.87;51.40;101309.53;5078071;28;20075;-66
2022/08/04 10:21:32;;;;;;;1.70;1.70;;;26.50;99.90;;;26.88;52.28;101296.81;5077982;28;20048;-66
2022/08/04 10:24:30;;;;;;;1.98;1.90;;;26.60;99.90;;;27.02;53.19;101322.13;5096614;28;20189;-66
2022/08/04 10:27:07;;;;;;;1.70;1.70;;;26.60;99.90;;;27.27;52.15;101327.69;5077797;28;20044;-66
2022/08/04 10:29:43;;;;;;;1.60;1.60;;;26.90;99.90;;;27.24;51.36;101310.69;5095780;28;20040;-66
2022/08/04 10:32:18;;;;;;;1.98;1.90;;;27.00;99.90;;;27.55;51.52;101332.16;5077588;28;20451;-66
2022/08/04 10:35:01;;;;;;;1.65;1.65;;;27.30;99.90;;;27.63;51.44;101303.50;5095489;28;20535;-66
2022/08/04 10:37:40;;;;;;;1.70;1.70;;;27.50;99.90;;;27.92;51.81;101322.38;5095566;28;20044;-67
2022/08/04 10:40:39;;;;;;;1.58;1.58;;;27.60;99.90;;;28.19;50.46;101320.47;5095452;28;20044;-66
2022/08/04 10:43:18;;;;;;;1.83;1.73;;;27.80;99.90;;;28.22;49.27;101320.28;5095582;28;20050;-66
2022/08/04 10:45:56;;;;;;;1.45;1.45;;;28.00;99.90;;;28.28;49.82;101315.25;5095254;28;20048;-66
2022/08/04 10:48:38;;;;;;;2.67;2.00;;;28.00;99.90;;;28.67;48.57;101314.28;5095156;28;20077;-67
2022/08/04 10:51:19;;;;;;;1.48;1.48;;;28.40;99.90;;;28.72;48.76;101308.50;5095250;28;20044;-66
2022/08/04 10:53:57;;;;;;;1.30;1.30;;;28.60;99.90;;;28.78;49.02;101297.16;5095162;28;20617;-66
2022/08/04 10:56:33;;;;;;;1.50;1.50;;;28.70;99.90;;;29.08;47.61;101322.13;5095496;28;20044;-67
2022/08/04 10:59:08;;;;;;;1.50;1.50;;;28.80;99.90;;;28.93;48.66;101318.72;5095553;28;20074;-67
2022/08/04 11:01:41;;;;;;;1.40;1.40;;;28.60;99.90;;;29.17;47.35;101321.50;5095167;28;20044;-66
2022/08/04 11:04:40;;;;;;;1.40;1.40;;;28.90;99.90;;;29.23;46.73;101316.47;5077490;28;20523;-67
2022/08/04 11:07:11;;;;;;;1.37;1.37;;;28.90;99.90;;;28.83;47.04;101245.94;5095280;28;20044;-67
2022/08/04 11:09:43;;;;;;;1.30;1.30;;;29.00;99.90;;;29.30;46.59;101316.88;5095657;28;20270;-67
2022/08/04 11:12:17;;;;;;;1.35;1.35;;;29.10;99.90;;;29.52;46.60;101321.59;5095226;28;20090;-67
2022/08/04 11:14:52;;;;;;;1.38;1.38;;;29.20;99.90;;;29.59;45.47;101317.38;5094805;28;20079;-67
2022/08/04 11:17:25;;;;;;;1.20;1.20;;;29.40;99.90;;;29.65;45.83;101316.94;5094842;28;20105;-67